Time;durP1;ratioP1;P1;durP2;ratioP2;P2;SDS_P1;SDS_P2;PMS_P1;PMS_P2;Temp;Humidity;BMP_temperature;BMP_pressure;BME280_temperature;BME280_humidity;BME280_pressure;Samples;Min_cycle;Max_cycle;Signal;HPM_P1;HPM_P2
2023/07/02 00:00:38;;;;;;;2.00;1.08;;;16.80;99.90;;;;;;5148979;27;20151;-67
2023/07/02 00:03:04;;;;;;;0.63;0.63;;;16.80;99.90;;;;;;5141399;27;20045;-67
2023/07/02 00:05:30;;;;;;;0.85;0.60;;;16.80;99.90;;;;;;5144946;27;20035;-67
2023/07/02 00:07:55;;;;;;;0.52;0.45;;;16.80;99.90;;;;;;5121364;27;20062;-67
2023/07/02 00:10:21;;;;;;;4.03;1.70;;;16.70;99.90;;;;;;5148740;27;20125;-67
2023/07/02 00:12:47;;;;;;;4.47;0.47;;;16.70;99.90;;;;;;5150076;27;20039;-67
2023/07/02 00:15:12;;;;;;;0.25;0.25;;;16.60;99.90;;;;;;5138678;27;20394;-67
2023/07/02 00:17:39;;;;;;;0.25;0.25;;;16.70;99.90;;;;;;5139104;27;20078;-67
2023/07/02 00:20:13;;;;;;;0.17;0.17;;;16.60;99.90;;;;;;5148154;27;20054;-67
2023/07/02 00:22:41;;;;;;;1.38;1.27;;;16.60;99.90;;;;;;5149582;27;20441;-67
2023/07/02 00:25:07;;;;;;;0.45;0.45;;;16.60;99.90;;;;;;5139165;27;20038;-67
2023/07/02 00:27:33;;;;;;;0.77;0.77;;;16.60;99.90;;;;;;5148504;27;20132;-67
2023/07/02 00:29:59;;;;;;;1.52;1.42;;;16.60;99.90;;;;;;5150223;27;20118;-67
2023/07/02 00:32:24;;;;;;;0.55;0.55;;;16.60;99.90;;;;;;5126527;27;20069;-67
2023/07/02 00:34:50;;;;;;;0.30;0.30;;;16.60;99.90;;;;;;5145259;27;20394;-67
2023/07/02 00:37:16;;;;;;;0.28;0.28;;;16.50;99.90;;;;;;5148483;27;20142;-67
2023/07/02 00:39:41;;;;;;;0.38;0.38;;;16.50;99.90;;;;;;5151101;27;20039;-67
2023/07/02 00:42:08;;;;;;;0.75;0.75;;;16.50;99.90;;;;;;5126780;27;20046;-67
2023/07/02 00:44:40;;;;;;;0.20;0.20;;;16.50;99.90;;;;;;5148419;27;20118;-67
2023/07/02 00:47:08;;;;;;;0.40;0.38;;;16.40;99.90;;;;;;5129240;27;20047;-67
2023/07/02 00:49:33;;;;;;;0.13;0.13;;;16.30;99.90;;;;;;5149876;27;20039;-67
2023/07/02 00:51:59;;;;;;;0.30;0.30;;;16.30;99.90;;;;;;5150401;27;20500;-67
2023/07/02 00:54:28;;;;;;;0.55;0.55;;;16.20;99.90;;;;;;5145249;27;20046;-67
2023/07/02 00:56:54;;;;;;;0.57;0.57;;;16.30;99.90;;;;;;5146674;27;20030;-67
2023/07/02 00:59:20;;;;;;;0.43;0.43;;;16.30;99.90;;;;;;5152723;27;20049;-67
2023/07/02 01:01:49;;;;;;;0.22;0.20;;;16.30;99.90;;;;;;5150095;27;20163;-67
2023/07/02 01:04:17;;;;;;;0.10;0.10;;;16.30;99.90;;;;;;5146461;27;20114;-67
2023/07/02 01:06:43;;;;;;;0.77;0.75;;;16.30;99.90;;;;;;5151814;27;20050;-67
2023/07/02 01:09:10;;;;;;;1.33;1.10;;;16.30;99.90;;;;;;5152158;27;20031;-67
2023/07/02 01:12:07;;;;;;;0.30;0.30;;;16.30;99.90;;;;;;5124324;27;20180;-67
2023/07/02 01:14:43;;;;;;;0.98;0.70;;;16.20;99.90;;;;;;5131379;27;20086;-67
2023/07/02 01:17:10;;;;;;;0.57;0.47;;;16.20;99.90;;;;;;5146325;27;20106;-67
2023/07/02 01:19:51;;;;;;;0.60;0.60;;;16.20;99.90;;;;;;5143072;27;20105;-67
2023/07/02 01:22:25;;;;;;;0.40;0.35;;;16.20;99.90;;;;;;5149454;27;20038;-67
2023/07/02 01:24:52;;;;;;;1.23;0.63;;;16.10;99.90;;;;;;5140070;27;20046;-67
2023/07/02 01:27:17;;;;;;;0.63;0.63;;;16.20;99.90;;;;;;5142903;27;20050;-67
2023/07/02 01:29:46;;;;;;;4.72;1.13;;;16.20;99.90;;;;;;5152331;27;20094;-67
2023/07/02 01:32:13;;;;;;;0.20;0.20;;;16.10;99.90;;;;;;5140258;27;20078;-67
2023/07/02 01:34:39;;;;;;;1.08;0.80;;;16.10;99.90;;;;;;5141409;27;20031;-67
2023/07/02 01:37:05;;;;;;;4.05;2.38;;;16.10;99.90;;;;;;5139201;27;20043;-67
2023/07/02 01:39:31;;;;;;;0.17;0.17;;;16.00;99.90;;;;;;5129975;27;20042;-67
2023/07/02 01:42:19;;;;;;;2.97;2.22;;;16.00;99.90;;;;;;5140496;27;20119;-67
2023/07/02 01:44:47;;;;;;;4.80;2.42;;;16.00;99.90;;;;;;5127571;27;20078;-67
2023/07/02 01:47:13;;;;;;;0.00;0.00;;;16.00;99.90;;;;;;5123073;27;20058;-67
2023/07/02 01:49:39;;;;;;;0.25;0.25;;;15.90;99.90;;;;;;5147911;27;20043;-67
2023/07/02 01:52:05;;;;;;;0.20;0.20;;;16.00;99.90;;;;;;5136967;27;20450;-67
2023/07/02 01:54:33;;;;;;;0.50;0.45;;;16.00;99.90;;;;;;5148879;27;20038;-67
2023/07/02 01:56:59;;;;;;;0.13;0.13;;;16.00;99.90;;;;;;5149456;27;20058;-67
2023/07/02 01:59:25;;;;;;;1.65;1.05;;;16.00;99.90;;;;;;5148806;27;20043;-67
2023/07/02 02:01:51;;;;;;;0.60;0.47;;;15.90;99.90;;;;;;5142540;27;20035;-67
2023/07/02 02:04:17;;;;;;;19.00;0.90;;;15.90;99.90;;;;;;5151025;27;20057;-67
2023/07/02 02:06:43;;;;;;;0.08;0.08;;;15.90;99.90;;;;;;5141823;27;20082;-67
2023/07/02 02:09:09;;;;;;;0.30;0.30;;;15.80;99.90;;;;;;5141175;27;20042;-67
2023/07/02 02:11:41;;;;;;;0.47;0.47;;;15.90;99.90;;;;;;5151479;27;20050;-66
2023/07/02 02:14:07;;;;;;;0.57;0.57;;;15.80;99.90;;;;;;5150907;27;20462;-67
2023/07/02 02:16:35;;;;;;;0.20;0.20;;;15.70;99.90;;;;;;5128268;27;20155;-66
2023/07/02 02:19:01;;;;;;;1.08;0.75;;;15.70;99.90;;;;;;5142504;27;20473;-66
2023/07/02 02:21:27;;;;;;;1.98;1.25;;;15.70;99.90;;;;;;5131708;27;20043;-66
2023/07/02 02:23:53;;;;;;;8.48;1.48;;;15.80;99.90;;;;;;5142409;27;20078;-66
2023/07/02 02:26:21;;;;;;;5.68;2.53;;;15.70;99.90;;;;;;5149280;27;20122;-67
2023/07/02 02:28:47;;;;;;;0.52;0.52;;;15.80;99.90;;;;;;5151209;27;20038;-67
2023/07/02 02:31:12;;;;;;;1.80;0.93;;;15.70;99.90;;;;;;5142045;27;20095;-67
2023/07/02 02:33:38;;;;;;;2.55;0.98;;;15.70;99.90;;;;;;5138128;27;20050;-66
2023/07/02 02:36:04;;;;;;;2.17;1.23;;;15.70;99.90;;;;;;5146635;27;20050;-67
2023/07/02 02:38:29;;;;;;;1.08;0.57;;;15.70;99.90;;;;;;5141743;27;20054;-67
2023/07/02 02:40:55;;;;;;;0.30;0.25;;;15.80;99.90;;;;;;5138553;27;20043;-67
2023/07/02 02:43:22;;;;;;;0.25;0.25;;;15.80;99.90;;;;;;5138265;27;20074;-67
2023/07/02 02:45:48;;;;;;;1.75;0.68;;;15.70;99.90;;;;;;5141295;27;20046;-67
2023/07/02 02:48:13;;;;;;;0.10;0.10;;;15.80;99.90;;;;;;5139399;27;20046;-67
2023/07/02 02:50:41;;;;;;;1.73;0.88;;;15.80;99.90;;;;;;5145434;27;20039;-66
2023/07/02 02:53:07;;;;;;;0.35;0.35;;;15.80;99.90;;;;;;5136044;27;20035;-67
2023/07/02 02:55:32;;;;;;;0.05;0.05;;;15.80;99.90;;;;;;5117871;27;20055;-66
2023/07/02 02:57:59;;;;;;;0.10;0.10;;;15.80;99.90;;;;;;5129782;27;20054;-67
2023/07/02 03:00:24;;;;;;;0.00;0.00;;;15.80;99.90;;;;;;5148784;27;20046;-67
2023/07/02 03:02:50;;;;;;;1.40;1.10;;;15.90;99.90;;;;;;5139808;27;20045;-66
2023/07/02 03:05:16;;;;;;;3.67;1.60;;;15.90;99.90;;;;;;5131308;27;20119;-67
2023/07/02 03:07:41;;;;;;;0.65;0.65;;;15.90;99.90;;;;;;5144007;27;20054;-66
2023/07/02 03:10:08;;;;;;;0.40;0.40;;;15.90;99.90;;;;;;5150203;27;20050;-66
2023/07/02 03:12:33;;;;;;;0.35;0.35;;;15.90;99.90;;;;;;5151055;27;20042;-67
2023/07/02 03:14:59;;;;;;;0.30;0.30;;;15.90;99.90;;;;;;5143439;27;20042;-67
2023/07/02 03:17:24;;;;;;;2.60;2.38;;;15.90;99.90;;;;;;5149327;27;20034;-66
2023/07/02 03:19:50;;;;;;;1.42;1.15;;;15.90;99.90;;;;;;5138555;27;20042;-66
2023/07/02 03:22:16;;;;;;;0.47;0.47;;;15.90;99.90;;;;;;5146677;27;20109;-67
2023/07/02 03:24:41;;;;;;;0.20;0.20;;;15.90;99.90;;;;;;5149141;27;20038;-67
2023/07/02 03:27:07;;;;;;;0.10;0.10;;;15.90;99.90;;;;;;5143251;27;20035;-66
2023/07/02 03:29:34;;;;;;;0.00;0.00;;;16.00;99.90;;;;;;5127437;27;20074;-66
2023/07/02 03:32:00;;;;;;;1.02;0.98;;;16.00;99.90;;;;;;5144619;27;20085;-67
2023/07/02 03:34:26;;;;;;;0.45;0.45;;;16.00;99.90;;;;;;5147161;27;20062;-66
2023/07/02 03:36:51;;;;;;;1.65;1.55;;;16.00;99.90;;;;;;5140413;27;20035;-67
2023/07/02 03:39:17;;;;;;;0.03;0.03;;;16.00;99.90;;;;;;5145702;27;20042;-67
2023/07/02 03:41:43;;;;;;;2.17;1.20;;;16.00;99.90;;;;;;5137465;27;20034;-67
2023/07/02 03:44:09;;;;;;;1.17;1.08;;;16.10;99.90;;;;;;5146693;27;20031;-67
2023/07/02 03:46:35;;;;;;;0.70;0.63;;;16.10;99.90;;;;;;5149312;27;20050;-67
2023/07/02 03:49:02;;;;;;;1.10;0.93;;;16.10;99.90;;;;;;5138118;27;20827;-67
2023/07/02 03:51:28;;;;;;;0.43;0.43;;;16.10;99.90;;;;;;5149377;27;20038;-67
2023/07/02 03:53:54;;;;;;;2.05;1.77;;;16.00;99.90;;;;;;5123796;27;20095;-66
2023/07/02 03:56:19;;;;;;;0.03;0.03;;;16.00;99.90;;;;;;5145299;27;20042;-67
2023/07/02 03:58:46;;;;;;;0.00;0.00;;;16.00;99.90;;;;;;5147119;27;20046;-66
2023/07/02 04:01:11;;;;;;;0.55;0.55;;;15.90;99.90;;;;;;5149586;27;20462;-66
2023/07/02 04:03:37;;;;;;;0.82;0.73;;;15.90;99.90;;;;;;5141003;27;20118;-67
2023/07/02 04:06:05;;;;;;;10.35;3.30;;;15.80;99.90;;;;;;5146593;27;20043;-66
2023/07/02 04:08:31;;;;;;;0.00;0.00;;;15.80;99.90;;;;;;5128436;27;20043;-66
2023/07/02 04:10:57;;;;;;;1.45;1.35;;;15.70;99.90;;;;;;5149418;27;20091;-67
2023/07/02 04:13:22;;;;;;;0.45;0.45;;;15.70;99.90;;;;;;5120899;27;20047;-67
2023/07/02 04:15:48;;;;;;;0.08;0.08;;;15.70;99.90;;;;;;5146213;27;20473;-67
2023/07/02 04:18:14;;;;;;;0.00;0.00;;;15.70;99.90;;;;;;5120513;27;20474;-66
2023/07/02 04:20:39;;;;;;;0.20;0.20;;;15.70;99.90;;;;;;5139900;27;20054;-67
2023/07/02 04:23:06;;;;;;;0.43;0.43;;;15.70;99.90;;;;;;5127371;27;20039;-67
2023/07/02 04:25:32;;;;;;;0.63;0.63;;;15.70;99.90;;;;;;5133147;27;20051;-67
2023/07/02 04:27:58;;;;;;;0.43;0.35;;;15.70;99.90;;;;;;5120050;27;20039;-67
2023/07/02 04:30:25;;;;;;;0.35;0.35;;;15.70;99.90;;;;;;5143154;27;20054;-67
2023/07/02 04:32:51;;;;;;;0.10;0.10;;;15.80;99.90;;;;;;5138477;27;20055;-66
2023/07/02 04:35:17;;;;;;;0.22;0.22;;;15.90;99.90;;;;;;5138180;27;20043;-66
2023/07/02 04:37:43;;;;;;;1.23;1.08;;;15.90;99.90;;;;;;5148172;27;20107;-67
2023/07/02 04:40:10;;;;;;;0.20;0.20;;;15.90;99.90;;;;;;5140185;27;20114;-67
2023/07/02 04:42:39;;;;;;;0.55;0.50;;;15.90;99.90;;;;;;5145426;27;20050;-66
2023/07/02 04:45:06;;;;;;;0.00;0.00;;;15.90;99.90;;;;;;5128137;27;20050;-66
2023/07/02 04:47:32;;;;;;;0.00;0.00;;;15.90;99.90;;;;;;5147589;27;20042;-66
2023/07/02 04:49:59;;;;;;;0.30;0.30;;;15.90;99.90;;;;;;5145288;27;20115;-66
2023/07/02 04:52:24;;;;;;;0.75;0.35;;;15.90;99.90;;;;;;5128885;27;20091;-66
2023/07/02 04:54:50;;;;;;;0.65;0.47;;;15.90;99.90;;;;;;5141383;27;20034;-67
2023/07/02 04:57:16;;;;;;;0.17;0.17;;;15.90;99.90;;;;;;5143262;27;20062;-66
2023/07/02 04:59:42;;;;;;;0.10;0.10;;;16.00;99.90;;;;;;5122810;27;20066;-66
2023/07/02 05:02:07;;;;;;;0.38;0.30;;;16.00;99.90;;;;;;5141121;27;20030;-67
2023/07/02 05:04:33;;;;;;;0.00;0.00;;;16.00;99.90;;;;;;5141308;27;20047;-67
2023/07/02 05:07:00;;;;;;;0.30;0.30;;;16.00;99.90;;;;;;5140216;27;20398;-67
2023/07/02 05:09:25;;;;;;;0.08;0.08;;;16.00;99.90;;;;;;5141568;27;20046;-67
2023/07/02 05:11:51;;;;;;;0.13;0.13;;;15.90;99.90;;;;;;5145008;27;20043;-67
2023/07/02 05:14:17;;;;;;;0.85;0.85;;;15.90;99.90;;;;;;5147586;27;20117;-66
2023/07/02 05:16:42;;;;;;;0.30;0.30;;;15.90;99.90;;;;;;5144053;27;20035;-66
2023/07/02 05:19:08;;;;;;;0.20;0.20;;;15.80;99.90;;;;;;5147093;27;20485;-67
2023/07/02 05:21:33;;;;;;;0.65;0.65;;;15.90;99.90;;;;;;5137897;27;20030;-67
2023/07/02 05:23:59;;;;;;;0.10;0.10;;;15.90;99.90;;;;;;5144968;27;20106;-67
2023/07/02 05:26:26;;;;;;;8.20;1.42;;;15.90;99.90;;;;;;5150543;27;20039;-67
2023/07/02 05:28:51;;;;;;;0.32;0.32;;;16.00;99.90;;;;;;5144179;27;20035;-67
2023/07/02 05:31:17;;;;;;;1.00;1.00;;;16.00;99.90;;;;;;5148715;27;20030;-67
2023/07/02 05:33:42;;;;;;;9.80;3.80;;;16.00;99.90;;;;;;5141455;27;20540;-67
2023/07/02 05:36:08;;;;;;;0.00;0.00;;;16.10;99.90;;;;;;5143124;27;20042;-67
2023/07/02 05:38:34;;;;;;;0.10;0.10;;;16.10;99.90;;;;;;5142497;27;20073;-66
2023/07/02 05:40:59;;;;;;;0.52;0.52;;;16.20;99.90;;;;;;5146985;27;20390;-66
2023/07/02 05:43:25;;;;;;;0.20;0.20;;;16.20;99.90;;;;;;5146939;27;20092;-66
2023/07/02 05:45:53;;;;;;;0.43;0.43;;;16.40;99.90;;;;;;5149489;27;20423;-66
2023/07/02 05:48:19;;;;;;;1.10;0.70;;;16.40;99.90;;;;;;5143152;27;20179;-66
2023/07/02 05:50:45;;;;;;;0.00;0.00;;;16.50;99.90;;;;;;5122785;27;20849;-66
2023/07/02 05:53:10;;;;;;;0.60;0.60;;;16.50;99.90;;;;;;5150903;27;20121;-66
2023/07/02 05:55:37;;;;;;;17.40;0.90;;;16.50;99.90;;;;;;5145541;27;20035;-66
2023/07/02 05:58:03;;;;;;;14.32;1.75;;;16.40;99.90;;;;;;5141405;27;20049;-66
2023/07/02 06:00:29;;;;;;;1.45;0.98;;;16.50;99.90;;;;;;5139059;27;20043;-66
2023/07/02 06:02:54;;;;;;;2.47;0.75;;;16.40;99.90;;;;;;5127315;27;20554;-66
2023/07/02 06:05:20;;;;;;;0.10;0.10;;;16.50;99.90;;;;;;5146977;27;20054;-65
2023/07/02 06:07:46;;;;;;;0.17;0.17;;;16.50;99.90;;;;;;5149314;27;20114;-66
2023/07/02 06:10:12;;;;;;;0.00;0.00;;;16.40;99.90;;;;;;5127310;27;20081;-66
2023/07/02 06:12:38;;;;;;;0.10;0.10;;;16.50;99.90;;;;;;5149577;27;20039;-65
2023/07/02 06:15:04;;;;;;;0.52;0.52;;;16.50;99.90;;;;;;5129573;27;20449;-66
2023/07/02 06:17:30;;;;;;;0.10;0.10;;;16.50;99.90;;;;;;5144911;27;20047;-66
2023/07/02 06:19:57;;;;;;;0.03;0.03;;;16.50;99.90;;;;;;5139618;27;20043;-66
2023/07/02 06:22:23;;;;;;;0.20;0.20;;;16.60;99.90;;;;;;5141535;27;20066;-66
2023/07/02 06:24:49;;;;;;;0.00;0.00;;;16.70;99.90;;;;;;5144273;27;20070;-66
2023/07/02 06:27:14;;;;;;;0.30;0.28;;;16.70;99.90;;;;;;5150411;27;20085;-66
2023/07/02 06:29:40;;;;;;;0.25;0.25;;;16.80;99.90;;;;;;5145034;27;20037;-66
2023/07/02 06:32:06;;;;;;;0.57;0.57;;;16.80;99.90;;;;;;5145947;27;20066;-66
2023/07/02 06:34:32;;;;;;;0.00;0.00;;;16.90;99.90;;;;;;5150453;27;20027;-66
2023/07/02 06:36:57;;;;;;;0.57;0.57;;;16.80;99.90;;;;;;5144565;27;20035;-66
2023/07/02 06:39:23;;;;;;;0.30;0.30;;;16.90;99.90;;;;;;5147593;27;20070;-66
2023/07/02 06:41:48;;;;;;;1.27;0.38;;;16.90;99.90;;;;;;5150685;27;20047;-66
2023/07/02 06:44:14;;;;;;;0.43;0.28;;;16.90;99.90;;;;;;5144873;27;20054;-66
2023/07/02 06:46:40;;;;;;;0.00;0.00;;;17.00;99.90;;;;;;5127728;27;20057;-66
2023/07/02 06:49:05;;;;;;;0.00;0.00;;;17.10;99.90;;;;;;5150206;27;20046;-66
2023/07/02 06:51:31;;;;;;;0.43;0.43;;;17.00;99.90;;;;;;5143246;27;20051;-66
2023/07/02 06:53:56;;;;;;;0.63;0.52;;;17.00;99.90;;;;;;5143857;27;20031;-67
2023/07/02 06:56:22;;;;;;;2.92;2.70;;;17.00;99.90;;;;;;5150455;27;20049;-66
2023/07/02 06:58:48;;;;;;;0.00;0.00;;;17.00;99.90;;;;;;5125722;27;20047;-66
2023/07/02 07:01:13;;;;;;;0.10;0.10;;;17.20;99.90;;;;;;5123151;27;20042;-66
2023/07/02 07:03:39;;;;;;;0.85;0.68;;;17.30;99.90;;;;;;5144978;27;20142;-66
2023/07/02 07:06:04;;;;;;;0.10;0.10;;;17.20;99.90;;;;;;5145277;27;20038;-66
2023/07/02 07:08:30;;;;;;;0.00;0.00;;;17.10;99.90;;;;;;5142312;27;20035;-67
2023/07/02 07:10:55;;;;;;;0.00;0.00;;;17.00;99.90;;;;;;5146657;27;20414;-66
2023/07/02 07:13:21;;;;;;;0.00;0.00;;;17.00;99.90;;;;;;5145554;27;20053;-66
2023/07/02 07:15:47;;;;;;;0.00;0.00;;;17.10;99.90;;;;;;5146095;27;20087;-66
2023/07/02 07:18:13;;;;;;;0.03;0.03;;;17.30;99.90;;;;;;5146079;27;20046;-66
2023/07/02 07:20:40;;;;;;;0.57;0.57;;;17.40;99.90;;;;;;5149593;27;20454;-66
2023/07/02 07:23:05;;;;;;;0.00;0.00;;;17.40;99.90;;;;;;5148513;27;20153;-66
2023/07/02 07:25:31;;;;;;;0.10;0.10;;;17.40;99.90;;;;;;5138193;27;20119;-66
2023/07/02 07:27:59;;;;;;;1.02;0.93;;;17.40;99.90;;;;;;5139091;27;20031;-66
2023/07/02 07:30:25;;;;;;;0.10;0.10;;;17.50;99.90;;;;;;5149316;27;20497;-66
2023/07/02 07:32:54;;;;;;;0.13;0.13;;;17.40;99.90;;;;;;5148829;27;20042;-66
2023/07/02 07:35:22;;;;;;;0.10;0.10;;;17.30;99.90;;;;;;5145098;27;20130;-66
2023/07/02 07:37:48;;;;;;;0.32;0.32;;;17.20;99.90;;;;;;5143730;27;20030;-66
2023/07/02 07:40:14;;;;;;;3.70;1.75;;;17.20;99.90;;;;;;5126012;27;20599;-66
2023/07/02 07:42:41;;;;;;;0.57;0.57;;;17.10;99.90;;;;;;5140558;27;20035;-67
2023/07/02 07:45:07;;;;;;;5.25;0.65;;;17.00;99.90;;;;;;5145269;27;20070;-66
2023/07/02 07:47:32;;;;;;;0.00;0.00;;;17.00;99.90;;;;;;5142095;27;20078;-66
2023/07/02 07:49:58;;;;;;;0.00;0.00;;;16.90;99.90;;;;;;5140399;27;20062;-66
2023/07/02 07:52:23;;;;;;;3.42;1.50;;;17.00;99.90;;;;;;5145598;27;20045;-66
2023/07/02 07:54:49;;;;;;;4.07;2.20;;;17.00;99.90;;;;;;5142860;27;20106;-66
2023/07/02 07:57:15;;;;;;;1.15;1.08;;;17.00;99.90;;;;;;5118681;27;20039;-66
2023/07/02 07:59:40;;;;;;;1.25;1.15;;;16.90;99.90;;;;;;5146881;27;20050;-66
2023/07/02 08:02:06;;;;;;;0.30;0.30;;;16.80;99.90;;;;;;5135118;27;20073;-66
2023/07/02 08:04:32;;;;;;;0.13;0.13;;;16.80;99.90;;;;;;5145608;27;20529;-67
2023/07/02 08:06:57;;;;;;;0.35;0.30;;;16.90;99.90;;;;;;5142393;27;20047;-66
2023/07/02 08:09:24;;;;;;;1.38;1.27;;;16.90;99.90;;;;;;5141803;27;20459;-66
2023/07/02 08:11:50;;;;;;;1.00;0.93;;;16.90;99.90;;;;;;5142697;27;20502;-66
2023/07/02 08:14:19;;;;;;;0.40;0.40;;;16.90;99.90;;;;;;5141583;27;20089;-67
2023/07/02 08:16:45;;;;;;;0.55;0.47;;;17.00;99.90;;;;;;5149600;27;20046;-66
2023/07/02 08:19:10;;;;;;;0.08;0.08;;;17.10;99.90;;;;;;5136634;27;20035;-67
2023/07/02 08:21:36;;;;;;;0.08;0.05;;;17.20;99.90;;;;;;5117476;27;20046;-67
2023/07/02 08:24:03;;;;;;;0.20;0.20;;;17.10;99.90;;;;;;5149026;27;20099;-66
2023/07/02 08:26:28;;;;;;;0.00;0.00;;;17.20;99.90;;;;;;5137715;27;20326;-65
2023/07/02 08:28:54;;;;;;;0.20;0.20;;;17.10;99.90;;;;;;5131069;27;20038;-66
2023/07/02 08:31:20;;;;;;;0.00;0.00;;;17.30;99.90;;;;;;5131428;27;20047;-65
2023/07/02 08:33:45;;;;;;;0.30;0.30;;;17.40;99.90;;;;;;5137624;27;20062;-66
2023/07/02 08:36:13;;;;;;;0.95;0.90;;;17.50;99.90;;;;;;5141521;27;20051;-66
2023/07/02 08:38:41;;;;;;;3.13;1.10;;;17.70;99.90;;;;;;5140612;27;20090;-65
2023/07/02 08:41:07;;;;;;;0.10;0.10;;;17.70;99.90;;;;;;5146812;27;20039;-66
2023/07/02 08:43:35;;;;;;;0.57;0.57;;;17.80;99.90;;;;;;5129621;27;20358;-66
2023/07/02 08:46:01;;;;;;;0.32;0.32;;;18.00;99.90;;;;;;5149112;27;20103;-69
2023/07/02 08:48:29;;;;;;;2.08;1.38;;;18.10;99.90;;;;;;5139450;27;20122;-67
2023/07/02 08:50:57;;;;;;;0.20;0.20;;;18.00;99.90;;;;;;5151530;27;20561;-66
2023/07/02 08:53:29;;;;;;;0.30;0.30;;;18.10;99.90;;;;;;5124156;27;20039;-66
2023/07/02 08:55:57;;;;;;;0.77;0.77;;;18.10;99.90;;;;;;5143507;27;20106;-67
2023/07/02 08:58:23;;;;;;;0.95;0.52;;;18.20;99.90;;;;;;5129848;27;20030;-67
2023/07/02 09:01:09;;;;;;;1.17;0.55;;;18.30;99.90;;;;;;5144823;27;20054;-66
2023/07/02 09:03:37;;;;;;;0.70;0.70;;;18.30;99.90;;;;;;5131808;27;20041;-67
2023/07/02 09:06:04;;;;;;;0.15;0.15;;;18.30;99.90;;;;;;5149404;27;20039;-67
2023/07/02 09:08:29;;;;;;;0.15;0.15;;;18.40;99.90;;;;;;5146884;27;20039;-66
2023/07/02 09:11:16;;;;;;;1.08;0.70;;;18.50;99.90;;;;;;5144431;27;20083;-66
2023/07/02 09:13:50;;;;;;;0.00;0.00;;;18.40;99.90;;;;;;5146246;27;20165;-66
2023/07/02 09:16:29;;;;;;;0.20;0.20;;;18.40;99.90;;;;;;5119140;27;20058;-66
2023/07/02 09:19:07;;;;;;;0.30;0.30;;;18.40;99.90;;;;;;5147522;27;20065;-66
2023/07/02 09:21:48;;;;;;;0.90;0.65;;;18.40;99.90;;;;;;5139841;27;20047;-66
2023/07/02 09:24:21;;;;;;;0.05;0.05;;;18.60;99.90;;;;;;5150465;27;20034;-67
2023/07/02 09:26:49;;;;;;;;;;;18.70;99.90;;;;;;5125065;27;20081;-67
2023/07/02 09:29:24;;;;;;;0.15;0.15;;;18.70;99.90;;;;;;5133570;27;19919;-67
2023/07/02 09:31:50;;;;;;;0.10;0.10;;;18.80;99.90;;;;;;5121682;27;20130;-67
2023/07/02 09:34:16;;;;;;;0.57;0.57;;;18.70;99.90;;;;;;5125443;27;20043;-67
2023/07/02 09:36:43;;;;;;;0.55;0.55;;;18.50;99.90;;;;;;5123127;27;20496;-66
2023/07/02 09:39:13;;;;;;;0.05;0.05;;;18.60;99.90;;;;;;5128840;27;20078;-67
2023/07/02 09:41:42;;;;;;;0.10;0.10;;;18.80;99.90;;;;;;5131289;27;20075;-67
2023/07/02 09:44:10;;;;;;;0.17;0.17;;;18.80;99.90;;;;;;5129350;27;20079;-66
2023/07/02 09:46:43;;;;;;;0.52;0.52;;;18.90;99.90;;;;;;5119724;27;20468;-66
2023/07/02 09:49:11;;;;;;;;;;;18.80;99.90;;;;;;5127203;27;20043;-66
2023/07/02 09:51:37;;;;;;;3.00;1.30;;;18.80;99.90;;;;;;5125610;27;19923;-66
2023/07/02 09:54:03;;;;;;;12.57;1.00;;;18.80;99.90;;;;;;5126030;27;20127;-66
2023/07/02 09:56:28;;;;;;;1.85;0.88;;;18.70;99.90;;;;;;5124574;27;20373;-66
2023/07/02 09:58:54;;;;;;;1.25;0.90;;;19.00;99.90;;;;;;5125219;27;20035;-66
2023/07/02 10:01:20;;;;;;;0.10;0.10;;;19.30;99.90;;;;;;5122382;27;20577;-66
2023/07/02 10:03:45;;;;;;;0.05;0.05;;;19.70;99.90;;;;;;5121566;27;20051;-66
2023/07/02 10:06:11;;;;;;;0.55;0.52;;;19.70;99.90;;;;;;5118393;27;20070;-66
2023/07/02 10:08:37;;;;;;;0.47;0.47;;;19.80;99.90;;;;;;5125510;27;20035;-66
2023/07/02 10:11:09;;;;;;;0.10;0.10;;;19.70;99.90;;;;;;5125665;27;20043;-66
2023/07/02 10:13:34;;;;;;;0.00;0.00;;;19.70;99.90;;;;;;5127251;27;20055;-66
2023/07/02 10:16:04;;;;;;;0.40;0.40;;;19.60;99.90;;;;;;5127302;27;20501;-66
2023/07/02 10:18:30;;;;;;;0.10;0.10;;;19.30;99.90;;;;;;5124526;27;20042;-65
2023/07/02 10:20:55;;;;;;;1.17;1.08;;;18.90;99.90;;;;;;5112544;27;20048;-65
2023/07/02 10:23:35;;;;;;;0.30;0.30;;;18.80;99.90;;;;;;5125864;27;20031;-66
2023/07/02 10:26:30;;;;;;;0.00;0.00;;;19.00;99.90;;;;;;5124886;27;20498;-66
2023/07/02 10:28:59;;;;;;;1.55;1.30;;;19.60;99.90;;;;;;5099184;27;20503;-66
2023/07/02 10:31:26;;;;;;;0.00;0.00;;;19.50;99.90;;;;;;5127032;27;20228;-65
2023/07/02 10:33:51;;;;;;;1.27;1.17;;;19.80;99.90;;;;;;5125501;27;20050;-65
2023/07/02 10:36:19;;;;;;;1.17;1.08;;;19.70;99.90;;;;;;5148724;27;20043;-66
2023/07/02 10:38:45;;;;;;;0.20;0.10;;;19.80;99.90;;;;;;5144313;27;20135;-66
2023/07/02 10:41:11;;;;;;;0.00;0.00;;;20.30;99.90;;;;;;5138674;27;20058;-66
2023/07/02 10:43:37;;;;;;;2.90;1.65;;;20.10;99.90;;;;;;5144014;27;20431;-66
2023/07/02 10:46:02;;;;;;;0.75;0.75;;;19.90;99.90;;;;;;5141989;27;20027;-66
2023/07/02 10:48:28;;;;;;;0.17;0.17;;;19.90;99.90;;;;;;5145769;27;20050;-66
2023/07/02 10:50:54;;;;;;;5.72;0.98;;;19.90;99.90;;;;;;5149470;27;20043;-67
2023/07/02 10:53:20;;;;;;;0.00;0.00;;;20.00;99.90;;;;;;5150893;27;20049;-67
2023/07/02 10:55:53;;;;;;;0.10;0.10;;;19.90;99.90;;;;;;5141054;27;20086;-67
2023/07/02 10:58:18;;;;;;;0.10;0.10;;;20.00;99.90;;;;;;5127085;27;20095;-66
2023/07/02 11:00:49;;;;;;;0.30;0.30;;;19.80;99.90;;;;;;5150160;27;20439;-67
2023/07/02 11:03:25;;;;;;;0.00;0.00;;;20.20;99.90;;;;;;5150414;27;20031;-67
2023/07/02 11:05:52;;;;;;;0.20;0.20;;;20.10;99.90;;;;;;5139127;27;20049;-67
2023/07/02 11:08:18;;;;;;;0.00;0.00;;;20.00;99.90;;;;;;5145234;27;20087;-67
2023/07/02 11:10:44;;;;;;;0.00;0.00;;;19.90;99.90;;;;;;5142276;27;20050;-67
2023/07/02 11:13:19;;;;;;;0.20;0.20;;;20.00;99.90;;;;;;5141867;27;20034;-67
2023/07/02 11:15:48;;;;;;;0.00;0.00;;;19.60;99.90;;;;;;5148321;27;20034;-66
2023/07/02 11:18:15;;;;;;;0.32;0.32;;;19.80;99.90;;;;;;5122019;27;20070;-66
2023/07/02 11:20:43;;;;;;;2.22;0.57;;;19.80;99.90;;;;;;5144833;27;20492;-67
2023/07/02 11:23:25;;;;;;;0.45;0.45;;;20.10;99.90;;;;;;5149706;27;20435;-67
2023/07/02 11:26:00;;;;;;;1.85;1.75;;;19.80;99.90;;;;;;5140364;27;20408;-66
2023/07/02 11:28:27;;;;;;;0.10;0.10;;;19.60;99.90;;;;;;5146249;27;20046;-66
2023/07/02 11:30:53;;;;;;;0.20;0.20;;;19.60;99.90;;;;;;5128402;27;20090;-66
2023/07/02 11:33:20;;;;;;;0.00;0.00;;;19.70;99.90;;;;;;5140732;27;20092;-66
2023/07/02 11:35:45;;;;;;;0.00;0.00;;;19.80;99.90;;;;;;5142889;27;20410;-66
2023/07/02 11:38:11;;;;;;;0.20;0.20;;;19.80;99.90;;;;;;5145743;27;20062;-67
2023/07/02 11:40:37;;;;;;;0.03;0.03;;;20.30;99.90;;;;;;5139513;27;20043;-66
2023/07/02 11:43:02;;;;;;;0.00;0.00;;;20.30;99.90;;;;;;5142713;27;20035;-66
2023/07/02 11:45:28;;;;;;;1.65;1.00;;;20.60;99.90;;;;;;5149035;27;20058;-66
2023/07/02 11:47:54;;;;;;;0.10;0.10;;;20.60;99.90;;;;;;5124704;27;20070;-66
2023/07/02 11:50:20;;;;;;;0.00;0.00;;;20.70;99.90;;;;;;5136946;27;20054;-66
2023/07/02 11:52:45;;;;;;;0.43;0.43;;;21.00;99.90;;;;;;5142586;27;20047;-66
2023/07/02 11:55:11;;;;;;;4.53;1.77;;;20.90;99.90;;;;;;5141951;27;20035;-66
2023/07/02 11:57:38;;;;;;;0.25;0.25;;;20.70;99.90;;;;;;5144746;27;20436;-67
2023/07/02 12:00:04;;;;;;;0.22;0.22;;;20.70;99.90;;;;;;5141595;27;20031;-66
2023/07/02 12:02:30;;;;;;;0.75;0.38;;;20.40;99.90;;;;;;5146244;27;20517;-66
2023/07/02 12:04:56;;;;;;;0.93;0.93;;;20.30;99.90;;;;;;5141324;27;20047;-67
2023/07/02 12:07:21;;;;;;;0.20;0.20;;;20.60;99.90;;;;;;5147783;27;20129;-66
2023/07/02 12:09:47;;;;;;;0.20;0.20;;;20.20;99.90;;;;;;5116088;27;20046;-65
2023/07/02 12:12:13;;;;;;;0.60;0.60;;;19.90;99.90;;;;;;5145254;27;20047;-65
2023/07/02 12:14:41;;;;;;;0.00;0.00;;;19.80;99.90;;;;;;5124882;27;20089;-65
2023/07/02 12:17:07;;;;;;;0.00;0.00;;;20.00;99.90;;;;;;5147901;27;20398;-66
2023/07/02 12:19:32;;;;;;;1.60;0.52;;;20.00;99.90;;;;;;5143730;27;20139;-66
2023/07/02 12:21:58;;;;;;;1.13;0.45;;;20.00;99.90;;;;;;5140971;27;20042;-66
2023/07/02 12:24:24;;;;;;;0.20;0.20;;;20.00;99.90;;;;;;5149389;27;20664;-66
2023/07/02 12:26:49;;;;;;;2.25;1.52;;;20.10;99.90;;;;;;5148834;27;20043;-66
2023/07/02 12:29:15;;;;;;;1.85;0.77;;;20.40;99.90;;;;;;5142040;27;20486;-66
2023/07/02 12:31:40;;;;;;;4.47;1.67;;;20.30;99.90;;;;;;5148858;27;20701;-66
2023/07/02 12:34:06;;;;;;;0.32;0.20;;;20.50;99.90;;;;;;5149360;27;20087;-66
2023/07/02 12:36:32;;;;;;;1.13;0.75;;;20.20;99.90;;;;;;5144808;27;20049;-66
2023/07/02 12:38:57;;;;;;;0.32;0.32;;;20.00;99.90;;;;;;5137470;27;20061;-66
2023/07/02 12:41:23;;;;;;;2.28;0.35;;;20.00;99.90;;;;;;5119467;27;20039;-66
2023/07/02 12:43:48;;;;;;;0.00;0.00;;;19.90;99.90;;;;;;5138682;27;20063;-66
2023/07/02 12:46:14;;;;;;;7.35;2.28;;;19.80;99.90;;;;;;5139302;27;20046;-66